Time;durP1;ratioP1;P1;durP2;ratioP2;P2;SDS_P1;SDS_P2;PMS_P1;PMS_P2;Temp;Humidity;BMP_temperature;BMP_pressure;BME280_temperature;BME280_humidity;BME280_pressure;Samples;Min_cycle;Max_cycle;Signal;HPM_P1;HPM_P2
2023/06/28 00:01:30;;;;;;;5.10;1.70;;;;;;;13.55;86.29;101016.82;106862;1256;72458;-70
2023/06/28 00:03:57;;;;;;;8.10;2.30;;;;;;;13.52;86.92;101024.79;107054;1262;62311;-71
2023/06/28 00:06:25;;;;;;;6.00;2.00;;;;;;;13.49;87.42;101025.36;107919;1258;60043;-71
2023/06/28 00:08:51;;;;;;;5.30;2.10;;;;;;;13.46;87.02;101028.33;107950;1256;75770;-70
2023/06/28 00:11:18;;;;;;;5.70;2.00;;;;;;;13.44;87.89;101030.34;107395;1257;70041;-71
2023/06/28 00:13:45;;;;;;;6.50;1.90;;;;;;;13.41;88.41;101033.17;107112;1257;71427;-72
2023/06/28 00:16:14;;;;;;;7.00;2.40;;;;;;;13.39;87.93;101032.86;107022;1257;61177;-72
2023/06/28 00:18:42;;;;;;;7.20;2.10;;;;;;;13.37;88.67;101035.14;107354;1257;61133;-71
2023/06/28 00:21:13;;;;;;;5.60;2.20;;;;;;;13.34;88.55;101037.55;107125;1258;74530;-71
2023/06/28 00:23:40;;;;;;;4.50;1.90;;;;;;;13.32;88.88;101039.78;107615;1257;69929;-71
2023/06/28 00:26:07;;;;;;;5.00;2.00;;;;;;;13.30;89.12;101044.09;107257;1256;71472;-71
2023/06/28 00:28:34;;;;;;;6.20;2.10;;;;;;;13.29;89.93;101046.02;107309;1257;61273;-72
2023/06/28 00:31:01;;;;;;;7.40;2.10;;;;;;;13.28;90.31;101046.23;107351;1257;61189;-72
2023/06/28 00:33:28;;;;;;;5.60;2.10;;;;;;;13.28;90.29;101046.65;107373;1257;74711;-71
2023/06/28 00:35:55;;;;;;;7.10;2.20;;;;;;;13.27;90.33;101041.27;106777;1261;69657;-71
2023/06/28 00:38:22;;;;;;;7.70;2.20;;;;;;;13.26;90.49;101045.42;107088;1257;71350;-72
2023/06/28 00:40:49;;;;;;;7.90;2.10;;;;;;;13.25;91.08;101047.50;107190;1257;61167;-71
2023/06/28 00:43:16;;;;;;;5.30;2.20;;;;;;;13.24;91.05;101049.77;106754;1256;782528;-71
2023/06/28 00:45:43;;;;;;;7.00;2.30;;;;;;;13.24;91.00;101043.05;107403;1256;74396;-71
2023/06/28 00:48:09;;;;;;;7.60;2.40;;;;;;;13.23;91.17;101043.31;107734;1258;71620;-71
2023/06/28 00:50:37;;;;;;;7.10;2.40;;;;;;;13.20;90.73;101042.09;107112;1257;73485;-71
2023/06/28 00:53:04;;;;;;;6.30;2.30;;;;;;;13.17;90.61;101042.66;107076;1256;61129;-71
2023/06/28 00:55:31;;;;;;;5.20;2.10;;;;;;;13.13;90.75;101047.59;106885;1257;61282;-71
2023/06/28 00:57:58;;;;;;;6.40;2.50;;;;;;;13.08;91.01;101049.16;107184;1256;72693;-71
2023/06/28 01:00:26;;;;;;;7.60;2.60;;;;;;;13.03;91.51;101048.90;106772;1257;70200;-72
2023/06/28 01:02:53;;;;;;;6.00;2.50;;;;;;;12.99;92.46;101046.90;107497;1257;72728;-71
2023/06/28 01:05:21;;;;;;;7.80;2.90;;;;;;;12.94;92.45;101048.48;107694;1257;61436;-72
2023/06/28 01:07:51;;;;;;;4.70;2.10;;;;;;;12.92;92.13;101050.90;106791;1257;61459;-71
2023/06/28 01:10:18;;;;;;;8.70;2.50;;;;;;;12.88;91.92;101053.29;106869;1262;75056;-72
2023/06/28 01:12:47;;;;;;;5.60;2.40;;;;;;;12.83;92.04;101053.02;107180;1257;71735;-71
2023/06/28 01:15:14;;;;;;;7.20;2.70;;;;;;;12.79;92.09;101052.29;107013;1256;73181;-69
2023/06/28 01:17:41;;;;;;;7.30;2.60;;;;;;;12.72;92.33;101048.61;106726;1260;61173;-70
2023/06/28 01:20:08;;;;;;;7.00;2.50;;;;;;;12.67;92.77;101048.83;107547;1256;61157;-72
2023/06/28 01:22:40;;;;;;;7.80;3.00;;;;;;;12.62;92.84;101048.71;108107;1257;73438;-73
2023/06/28 01:25:09;;;;;;;6.70;2.60;;;;;;;12.57;93.70;101046.21;108154;1256;71373;-72
2023/06/28 01:27:40;;;;;;;8.30;2.70;;;;;;;12.54;93.68;101049.88;107584;1256;72514;-70
2023/06/28 01:30:10;;;;;;;7.90;2.70;;;;;;;12.50;93.99;101047.48;106935;1256;62204;-70
2023/06/28 01:32:37;;;;;;;9.50;3.00;;;;;;;12.47;94.46;101053.27;107084;1257;61274;-72
2023/06/28 01:35:05;;;;;;;9.40;3.20;;;;;;;12.44;94.64;101055.94;106713;1257;74692;-70
2023/06/28 01:37:32;;;;;;;8.10;2.90;;;;;;;12.41;95.07;101055.42;107058;1256;69532;-72
2023/06/28 01:40:00;;;;;;;7.20;2.90;;;;;;;12.39;95.33;101060.67;107437;1260;72313;-72
2023/06/28 01:42:27;;;;;;;6.50;3.40;;;;;;;12.36;95.54;101058.17;107429;1258;61213;-72
2023/06/28 01:44:54;;;;;;;9.00;3.10;;;;;;;12.33;96.30;101066.30;107201;1256;61248;-69
2023/06/28 01:47:21;;;;;;;6.90;3.20;;;;;;;12.30;97.09;101066.79;106979;1256;73460;-70
2023/06/28 01:49:48;;;;;;;7.00;3.40;;;;;;;12.28;97.30;101065.64;107014;1256;70733;-71
2023/06/28 01:52:15;;;;;;;8.30;3.30;;;;;;;12.27;97.43;101067.61;107113;1256;71871;-71
2023/06/28 01:54:43;;;;;;;9.90;3.30;;;;;;;12.24;97.99;101065.33;107278;1257;60526;-71
2023/06/28 01:57:11;;;;;;;8.00;3.30;;;;;;;12.22;98.41;101066.67;106824;1257;61171;-72
2023/06/28 01:59:38;;;;;;;8.30;3.20;;;;;;;12.19;98.67;101067.66;107879;1256;72571;-71
2023/06/28 02:02:05;;;;;;;7.40;3.40;;;;;;;12.18;99.12;101064.67;107539;1256;71294;-71
2023/06/28 02:04:32;;;;;;;7.40;3.10;;;;;;;12.17;99.12;101070.09;107149;1257;72798;-70
2023/06/28 02:06:58;;;;;;;8.30;3.20;;;;;;;12.16;99.43;101070.40;106838;1256;62014;-70
2023/06/28 02:09:25;;;;;;;9.40;3.50;;;;;;;12.16;99.90;101073.20;107812;1256;61244;-71
2023/06/28 02:11:52;;;;;;;7.10;3.20;;;;;;;12.17;99.97;101071.45;106562;1256;74519;-70
2023/06/28 02:14:19;;;;;;;8.20;3.40;;;;;;;12.17;100.00;101071.95;106300;1257;71124;-71
2023/06/28 02:16:46;;;;;;;15.60;3.60;;;;;;;12.17;100.00;101070.19;107146;1257;72030;-71
2023/06/28 02:19:15;;;;;;;10.60;4.00;;;;;;;12.17;100.00;101068.50;107668;1256;61184;-70
2023/06/28 02:21:42;;;;;;;10.00;3.40;;;;;;;12.17;100.00;101068.86;106494;1256;61285;-70
2023/06/28 02:24:09;;;;;;;8.60;3.30;;;;;;;12.16;100.00;101063.10;106463;1259;74879;-70
2023/06/28 02:26:36;;;;;;;9.70;3.60;;;;;;;12.16;100.00;101059.61;106412;1256;71280;-71
2023/06/28 02:29:03;;;;;;;10.70;4.10;;;;;;;12.15;100.00;101064.23;106323;1257;72747;-70
2023/06/28 02:31:30;;;;;;;8.00;3.50;;;;;;;12.15;100.00;101062.70;106281;1257;61353;-72
2023/06/28 02:33:57;;;;;;;8.80;3.80;;;;;;;12.14;100.00;101062.31;106949;1257;61596;-69
2023/06/28 02:36:24;;;;;;;8.40;3.00;;;;;;;12.13;100.00;101062.05;107250;1257;73146;-70
2023/06/28 02:38:51;;;;;;;9.40;3.50;;;;;;;12.12;100.00;101065.71;106763;1257;70073;-69
2023/06/28 02:41:18;;;;;;;7.20;3.30;;;;;;;12.11;100.00;101063.45;106299;1257;72736;-72
2023/06/28 02:43:45;;;;;;;8.30;3.40;;;;;;;12.10;100.00;101061.59;106556;1257;61355;-70
2023/06/28 02:46:12;;;;;;;7.10;3.10;;;;;;;12.10;100.00;101063.27;106242;1257;61379;-71
2023/06/28 02:48:39;;;;;;;8.90;3.50;;;;;;;12.09;100.00;101056.33;106622;1256;73280;-69
2023/06/28 02:51:06;;;;;;;8.30;3.60;;;;;;;12.08;100.00;101061.23;107311;1256;70040;-70
2023/06/28 02:53:33;;;;;;;9.60;3.40;;;;;;;12.07;100.00;101060.58;106631;1258;70845;-72
2023/06/28 02:56:01;;;;;;;8.30;3.20;;;;;;;12.06;100.00;101060.86;107414;1257;62684;-71
2023/06/28 02:58:27;;;;;;;7.80;3.70;;;;;;;12.05;100.00;101060.97;106329;1257;62422;-71
2023/06/28 03:00:54;;;;;;;10.50;3.50;;;;;;;12.04;100.00;101064.79;106404;1258;74338;-71
2023/06/28 03:03:22;;;;;;;11.10;3.40;;;;;;;12.04;100.00;101069.94;106222;1258;71041;-70
2023/06/28 03:05:49;;;;;;;8.40;3.90;;;;;;;12.03;100.00;101069.19;106869;1256;71488;-71
2023/06/28 03:08:16;;;;;;;9.30;3.50;;;;;;;12.03;100.00;101070.81;106854;1258;61347;-72
2023/06/28 03:10:43;;;;;;;11.70;3.50;;;;;;;12.03;100.00;101070.27;107387;1257;61299;-70
2023/06/28 03:13:10;;;;;;;7.80;3.40;;;;;;;12.03;100.00;101071.48;106991;1259;75159;-70
2023/06/28 03:15:37;;;;;;;6.90;3.60;;;;;;;12.04;100.00;101068.92;107285;1256;71231;-72
2023/06/28 03:18:04;;;;;;;10.60;3.60;;;;;;;12.05;100.00;101068.95;106711;1259;71431;-70
2023/06/28 03:20:30;;;;;;;11.00;3.70;;;;;;;12.07;100.00;101066.67;106451;1260;61227;-71
2023/06/28 03:22:58;;;;;;;11.50;3.40;;;;;;;12.09;100.00;101071.72;106384;1256;61276;-71
2023/06/28 03:25:25;;;;;;;9.70;3.70;;;;;;;12.11;100.00;101070.44;107245;1259;73341;-71
2023/06/28 03:27:51;;;;;;;10.60;3.60;;;;;;;12.14;100.00;101074.83;106852;1256;70568;-71
2023/06/28 03:30:18;;;;;;;7.60;3.60;;;;;;;12.18;100.00;101076.91;106283;1256;71282;-71
2023/06/28 03:32:45;;;;;;;6.50;3.30;;;;;;;12.21;100.00;101077.52;107013;1256;60771;-71
2023/06/28 03:35:12;;;;;;;7.10;3.30;;;;;;;12.27;100.00;101077.11;106212;1256;61760;-71
2023/06/28 03:37:39;;;;;;;6.40;3.30;;;;;;;12.32;100.00;101074.92;106290;1257;73150;-71
2023/06/28 03:40:08;;;;;;;8.00;3.10;;;;;;;12.37;100.00;101073.87;106252;1257;70962;-71
2023/06/28 03:42:34;;;;;;;7.30;3.30;;;;;;;12.41;100.00;101070.53;106331;1257;71497;-72
2023/06/28 03:45:02;;;;;;;9.20;3.70;;;;;;;12.46;100.00;101064.64;107029;1256;62086;-73
2023/06/28 03:47:28;;;;;;;9.10;3.40;;;;;;;12.51;100.00;101062.23;106800;1257;61328;-71
2023/06/28 03:49:55;;;;;;;8.30;3.40;;;;;;;12.55;100.00;101064.39;106151;1256;73622;-72
2023/06/28 03:52:21;;;;;;;9.20;3.60;;;;;;;12.60;100.00;101065.75;106558;1259;70118;-72
2023/06/28 03:54:48;;;;;;;7.10;3.10;;;;;;;12.64;100.00;101067.95;106013;1259;71560;-72
2023/06/28 03:57:15;;;;;;;8.10;3.20;;;;;;;12.69;100.00;101062.69;106004;1256;61822;-71
2023/06/28 03:59:41;;;;;;;9.00;3.40;;;;;;;12.74;100.00;101060.48;106151;1259;60380;-71
2023/06/28 04:02:08;;;;;;;8.70;3.30;;;;;;;12.80;100.00;101061.73;105936;1261;61282;-71
2023/06/28 04:04:35;;;;;;;8.40;3.00;;;;;;;12.87;100.00;101064.46;108096;1257;69824;-73
2023/06/28 04:07:02;;;;;;;9.60;3.40;;;;;;;12.93;100.00;101063.56;108489;1257;72710;-72
2023/06/28 04:09:29;;;;;;;7.60;3.60;;;;;;;13.00;100.00;101063.72;106224;1257;61371;-71
2023/06/28 04:11:56;;;;;;;9.50;3.50;;;;;;;13.06;99.94;101065.58;107029;1256;59276;-72
2023/06/28 04:14:24;;;;;;;7.90;3.40;;;;;;;13.12;99.81;101067.04;107516;1256;75136;-74
2023/06/28 04:16:51;;;;;;;10.10;3.50;;;;;;;13.17;99.73;101065.41;106848;1257;70345;-72
2023/06/28 04:19:19;;;;;;;8.70;3.30;;;;;;;13.22;99.48;101069.58;106382;1261;72761;-70
2023/06/28 04:21:46;;;;;;;8.80;3.40;;;;;;;13.27;99.23;101070.92;107055;1256;61304;-71
2023/06/28 04:24:13;;;;;;;6.90;3.10;;;;;;;13.32;99.04;101068.59;106876;1257;61316;-69
2023/06/28 04:26:40;;;;;;;7.00;3.10;;;;;;;13.37;98.72;101070.06;106451;1256;61247;-70
2023/06/28 04:29:06;;;;;;;8.00;3.20;;;;;;;13.44;98.59;101071.02;106695;1257;70851;-70
2023/06/28 04:31:34;;;;;;;7.70;3.20;;;;;;;13.50;98.66;101069.83;106426;1260;71532;-76
2023/06/28 04:34:01;;;;;;;7.70;3.10;;;;;;;13.55;98.55;101074.72;106378;1256;62587;-80
2023/06/28 04:36:28;;;;;;;12.00;3.10;;;;;;;13.60;98.34;101071.21;106404;1257;61393;-79
2023/06/28 04:38:55;;;;;;;8.70;3.10;;;;;;;13.67;98.24;101071.11;106608;1257;73423;-78
2023/06/28 04:41:23;;;;;;;11.00;3.10;;;;;;;13.73;98.17;101071.42;107204;1256;71165;-77
2023/06/28 04:43:55;;;;;;;7.10;2.90;;;;;;;13.80;98.09;101067.71;106484;1257;72531;-80
2023/06/28 04:46:22;;;;;;;9.20;3.40;;;;;;;13.87;97.72;101072.90;106503;1262;61338;-79
2023/06/28 04:48:50;;;;;;;8.20;3.10;;;;;;;13.91;97.11;101070.48;107069;1256;61282;-77
2023/06/28 04:51:18;;;;;;;15.30;3.30;;;;;;;13.98;97.26;101076.08;106524;1258;74674;-78
2023/06/28 04:53:44;;;;;;;7.30;2.70;;;;;;;14.06;96.84;101074.20;106580;1256;69128;-76
2023/06/28 04:56:11;;;;;;;8.90;3.40;;;;;;;14.15;96.57;101074.90;106737;1257;72405;-81
2023/06/28 04:58:38;;;;;;;11.50;3.20;;;;;;;14.22;96.24;101075.89;107574;1256;62013;-80
2023/06/28 05:01:06;;;;;;;9.10;3.00;;;;;;;14.31;95.80;101076.66;106445;1257;60381;-76
2023/06/28 05:03:34;;;;;;;9.90;2.80;;;;;;;14.36;95.26;101077.86;106367;1259;73912;-78
2023/06/28 05:06:06;;;;;;;9.10;3.00;;;;;;;14.41;95.16;101077.80;107012;1257;70870;-79
2023/06/28 05:08:33;;;;;;;7.70;2.80;;;;;;;14.50;94.79;101073.93;106641;1256;73124;-78
2023/06/28 05:11:01;;;;;;;9.30;3.20;;;;;;;14.58;94.44;101070.21;106403;1261;61762;-78
2023/06/28 05:13:28;;;;;;;8.40;2.70;;;;;;;14.65;93.81;101067.98;106715;1256;61292;-74
2023/06/28 05:15:55;;;;;;;7.70;3.00;;;;;;;14.71;93.53;101068.52;107036;1256;73860;-79
2023/06/28 05:18:22;;;;;;;10.60;2.80;;;;;;;14.79;93.51;101066.36;106300;1259;70032;-78
2023/06/28 05:20:49;;;;;;;9.70;2.80;;;;;;;14.87;93.08;101066.02;107124;1256;71558;-77
2023/06/28 05:23:18;;;;;;;13.20;3.20;;;;;;;14.97;92.95;101066.05;106567;1260;62040;-77
2023/06/28 05:25:45;;;;;;;10.00;2.70;;;;;;;15.04;92.35;101067.11;106618;1259;61251;-76
2023/06/28 05:28:13;;;;;;;12.60;3.30;;;;;;;15.11;92.05;101066.80;107497;1260;73927;-76
2023/06/28 05:30:42;;;;;;;7.20;3.10;;;;;;;15.18;91.44;101066.91;107202;1256;71702;-73
2023/06/28 05:33:10;;;;;;;10.70;2.80;;;;;;;15.24;90.75;101068.02;107446;1260;72610;-75
2023/06/28 05:35:37;;;;;;;10.90;2.50;;;;;;;15.31;90.98;101063.30;106933;1256;61240;-74
2023/06/28 05:38:05;;;;;;;9.50;3.00;;;;;;;15.39;90.37;101064.61;107110;1256;61151;-75
2023/06/28 05:40:33;;;;;;;9.70;2.80;;;;;;;15.48;90.32;101066.98;106326;1256;73337;-77
2023/06/28 05:43:00;;;;;;;11.50;2.90;;;;;;;15.56;89.74;101066.91;106011;1257;70060;-72
2023/06/28 05:45:29;;;;;;;7.30;2.40;;;;;;;15.67;89.76;101070.14;106266;1257;71432;-71
2023/06/28 05:47:58;;;;;;;6.50;2.50;;;;;;;15.76;89.08;101073.75;106828;1258;61317;-72
2023/06/28 05:50:25;;;;;;;9.10;2.60;;;;;;;15.81;88.10;101077.38;106936;1257;61261;-74
2023/06/28 05:52:52;;;;;;;10.30;3.40;;;;;;;15.85;87.60;101079.42;106213;1256;74625;-75
2023/06/28 05:55:19;;;;;;;10.20;2.70;;;;;;;15.90;87.61;101076.73;106271;1256;70064;-73
2023/06/28 05:57:46;;;;;;;14.20;3.40;;;;;;;15.99;87.27;101072.05;108713;1257;71199;-75
2023/06/28 06:00:13;;;;;;;9.30;2.60;;;;;;;16.09;87.47;101074.88;108820;1256;61556;-75
2023/06/28 06:02:40;;;;;;;39.40;27.10;;;;;;;16.23;87.68;101069.52;107572;1256;61247;-74
2023/06/28 06:05:07;;;;;;;44.90;26.80;;;;;;;16.37;87.07;101066.74;107211;1256;73577;-74
2023/06/28 06:07:39;;;;;;;13.60;7.80;;;;;;;16.53;86.21;101068.11;107882;1259;70454;-76
2023/06/28 06:10:08;;;;;;;10.40;2.80;;;;;;;16.63;84.74;101064.21;107081;1256;72191;-71
2023/06/28 06:12:35;;;;;;;26.10;17.50;;;;;;;16.75;84.34;101064.50;106703;1256;61358;-76
2023/06/28 06:15:03;;;;;;;13.20;5.10;;;;;;;16.86;84.10;101058.34;107041;1256;60372;-71
2023/06/28 06:17:30;;;;;;;6.60;2.30;;;;;;;16.95;82.74;101061.71;106470;1257;73527;-73
2023/06/28 06:19:56;;;;;;;27.30;18.00;;;;;;;16.96;81.87;101058.15;106530;1256;69699;-71
2023/06/28 06:22:23;;;;;;;57.90;38.20;;;;;;;17.01;82.15;101055.39;106655;1257;61404;-73
2023/06/28 06:24:50;;;;;;;8.40;2.70;;;;;;;17.07;81.56;101054.30;106968;1257;61983;-72
2023/06/28 06:27:17;;;;;;;13.40;6.70;;;;;;;17.14;81.18;101053.48;107255;1256;61288;-72
2023/06/28 06:29:43;;;;;;;11.30;5.00;;;;;;;17.26;81.44;101050.92;107132;1257;73453;-75
2023/06/28 06:32:10;;;;;;;8.30;2.50;;;;;;;17.44;81.10;101053.80;106993;1256;71171;-74
2023/06/28 06:34:39;;;;;;;7.60;2.60;;;;;;;17.52;80.08;101059.21;106749;1256;71375;-75
2023/06/28 06:37:11;;;;;;;8.90;2.50;;;;;;;17.51;78.86;101061.24;106605;1256;61365;-76
2023/06/28 06:39:39;;;;;;;7.80;2.70;;;;;;;17.45;79.39;101062.09;108815;1257;59256;-74
2023/06/28 06:42:06;;;;;;;7.80;2.30;;;;;;;17.41;78.67;101066.11;108400;1256;73501;-74
2023/06/28 06:44:33;;;;;;;7.50;2.30;;;;;;;17.42;79.30;101069.04;107398;1257;69002;-76
2023/06/28 06:47:01;;;;;;;5.00;2.20;;;;;;;17.59;79.94;101068.40;107304;1256;71386;-73
2023/06/28 06:49:28;;;;;;;8.70;2.50;;;;;;;17.74;78.48;101071.70;107263;1257;61412;-75
2023/06/28 06:51:55;;;;;;;7.50;2.20;;;;;;;17.86;78.39;101071.86;106633;1259;61392;-75
2023/06/28 06:54:24;;;;;;;8.70;3.50;;;;;;;17.97;77.50;101072.98;106934;1257;73122;-76
2023/06/28 06:56:51;;;;;;;12.40;8.00;;;;;;;18.05;76.80;101078.90;106741;1258;71185;-71
2023/06/28 06:59:19;;;;;;;7.40;2.40;;;;;;;18.06;74.85;101080.02;106540;1256;73931;-71
2023/06/28 07:01:48;;;;;;;8.70;2.80;;;;;;;18.07;74.38;101081.55;106863;1257;60755;-74
2023/06/28 07:04:15;;;;;;;13.30;6.20;;;;;;;18.08;74.63;101078.15;107047;1257;61272;-75
2023/06/28 07:06:44;;;;;;;5.40;1.80;;;;;;;18.17;74.70;101081.69;107573;1256;73880;-74
2023/06/28 07:12:59;;;;;;;6.80;2.60;;;;;;;18.38;72.77;101084.73;106323;1256;72059;-73
2023/06/28 07:15:27;;;;;;;7.80;3.80;;;;;;;18.44;71.79;101081.80;106437;1258;61921;-69
2023/06/28 07:17:55;;;;;;;8.10;3.30;;;;;;;18.44;70.79;101088.46;106661;1257;61377;-75
2023/06/28 07:20:22;;;;;;;5.80;1.90;;;;;;;18.42;70.50;101086.58;106298;1257;73490;-73
2023/06/28 07:22:49;;;;;;;17.00;9.60;;;;;;;18.42;70.49;101090.25;106811;1256;71589;-73
2023/06/28 07:25:16;;;;;;;71.10;51.90;;;;;;;18.44;69.63;101096.23;107712;1257;71534;-75
2023/06/28 07:27:43;;;;;;;19.90;12.30;;;;;;;18.48;69.47;101093.15;106690;1258;61118;-72
2023/06/28 07:30:10;;;;;;;27.80;18.00;;;;;;;18.54;69.31;101092.11;106409;1261;61419;-71
2023/06/28 07:32:36;;;;;;;10.10;5.00;;;;;;;18.59;68.87;101089.02;106581;1256;74368;-71
2023/06/28 07:35:04;;;;;;;7.00;2.60;;;;;;;18.61;67.75;101093.75;106535;1259;69706;-71
2023/06/28 07:37:30;;;;;;;4.70;1.70;;;;;;;18.64;66.97;101093.15;106023;1259;71511;-70
2023/06/28 07:39:58;;;;;;;5.10;1.40;;;;;;;18.66;65.07;101095.69;106957;1257;61308;-76
2023/06/28 07:42:27;;;;;;;6.00;1.40;;;;;;;18.72;66.17;101093.58;106838;1256;61633;-75
2023/06/28 07:44:54;;;;;;;6.10;1.20;;;;;;;18.80;66.47;101093.54;107089;1260;75526;-70
2023/06/28 07:47:21;;;;;;;7.60;2.70;;;;;;;18.89;66.71;101086.73;106312;1261;71953;-72
2023/06/28 07:49:47;;;;;;;8.00;2.10;;;;;;;18.92;65.87;101081.04;106820;1256;71733;-73
2023/06/28 07:52:14;;;;;;;44.00;36.50;;;;;;;19.01;64.40;101079.91;106626;1256;62259;-72
2023/06/28 07:54:41;;;;;;;10.10;5.00;;;;;;;19.08;63.76;101082.58;106528;1257;62757;-71
2023/06/28 07:57:09;;;;;;;15.20;10.50;;;;;;;19.12;63.25;101077.94;107098;1256;73156;-71
2023/06/28 07:59:36;;;;;;;8.00;3.30;;;;;;;19.22;63.91;101080.00;106679;1257;71203;-73
2023/06/28 08:02:03;;;;;;;8.70;4.10;;;;;;;19.33;63.16;101079.95;107249;1256;72470;-74
2023/06/28 08:04:30;;;;;;;4.10;1.40;;;;;;;19.41;61.43;101079.49;106503;1256;61240;-75
2023/06/28 08:06:57;;;;;;;5.00;1.20;;;;;;;19.49;61.04;101083.38;106224;1257;61269;-74
2023/06/28 08:09:24;;;;;;;5.80;1.70;;;;;;;19.52;59.52;101083.80;106583;1256;74743;-72
2023/06/28 08:11:51;;;;;;;16.90;9.80;;;;;;;19.54;59.84;101077.41;106649;1257;69902;-71
2023/06/28 08:14:18;;;;;;;10.40;4.70;;;;;;;19.57;59.02;101075.30;106959;1256;71141;-70
2023/06/28 08:16:45;;;;;;;17.00;10.10;;;;;;;19.58;58.60;101076.75;106911;1257;60225;-72
2023/06/28 08:19:13;;;;;;;6.90;4.00;;;;;;;19.63;59.26;101075.48;107240;1256;61681;-72
2023/06/28 08:21:40;;;;;;;8.00;4.50;;;;;;;19.73;59.35;101075.46;106876;1256;74832;-72
2023/06/28 08:24:07;;;;;;;6.90;2.80;;;;;;;19.82;59.36;101074.70;106409;1257;68949;-70
2023/06/28 08:26:36;;;;;;;6.30;2.50;;;;;;;19.88;57.38;101080.63;106116;1257;72388;-71
2023/06/28 08:29:03;;;;;;;6.80;2.70;;;;;;;19.92;56.10;101080.86;106535;1257;60166;-70
2023/06/28 08:31:30;;;;;;;16.90;10.40;;;;;;;20.00;57.45;101078.11;106806;1256;61249;-75
2023/06/28 08:33:58;;;;;;;4.10;1.50;;;;;;;20.10;57.36;101078.09;106938;1256;73044;-71
2023/06/28 08:36:25;;;;;;;4.70;1.40;;;;;;;20.09;56.34;101088.95;106277;1256;71544;-72
2023/06/28 08:38:52;;;;;;;7.70;4.00;;;;;;;20.12;56.36;101086.92;107117;1258;71474;-73
2023/06/28 08:41:19;;;;;;;4.00;1.60;;;;;;;20.11;54.39;101088.27;106388;1258;61276;-70
2023/06/28 08:43:50;;;;;;;3.90;1.00;;;;;;;20.08;54.67;101087.95;106478;1256;61219;-72
2023/06/28 08:46:17;;;;;;;39.60;31.60;;;;;;;20.12;56.50;101074.52;106208;1257;75349;-70
2023/06/28 08:48:46;;;;;;;8.70;4.80;;;;;;;20.23;56.60;101074.63;106353;1257;69266;-70
2023/06/28 08:51:15;;;;;;;16.20;10.10;;;;;;;20.31;54.93;101081.55;107135;1257;71602;-69
2023/06/28 08:53:45;;;;;;;23.40;16.50;;;;;;;20.30;53.92;101077.88;106393;1257;61216;-70
2023/06/28 08:56:12;;;;;;;5.90;2.90;;;;;;;20.32;54.20;101075.82;108145;1256;59621;-70
2023/06/28 08:58:41;;;;;;;7.50;3.50;;;;;;;20.34;54.37;101067.98;108819;1257;73451;-71
2023/06/28 09:01:08;;;;;;;7.60;4.30;;;;;;;20.36;54.97;101072.64;108380;1256;70114;-69
2023/06/28 09:03:40;;;;;;;21.20;14.80;;;;;;;20.44;53.76;101072.61;106590;1257;70690;-73
2023/06/28 09:06:08;;;;;;;5.20;2.00;;;;;;;20.59;54.73;101071.16;108269;1257;61308;-74
2023/06/28 09:08:35;;;;;;;9.80;6.00;;;;;;;20.72;53.19;101068.86;106734;1256;61299;-68
2023/06/28 09:11:02;;;;;;;4.60;1.70;;;;;;;20.76;52.33;101075.70;107034;1259;73431;-70
2023/06/28 09:13:30;;;;;;;6.60;3.80;;;;;;;20.76;51.02;101073.86;106836;1260;71114;-71
2023/06/28 09:15:56;;;;;;;16.70;12.40;;;;;;;20.85;51.84;101066.46;107484;1256;72683;-70
2023/06/28 09:18:23;;;;;;;9.20;5.60;;;;;;;20.91;51.91;101062.54;107105;1256;61299;-70
2023/06/28 09:20:54;;;;;;;8.10;4.70;;;;;;;21.01;50.69;101062.40;106656;1258;62479;-70
2023/06/28 09:23:28;;;;;;;4.60;1.90;;;;;;;21.06;50.25;101058.79;106525;1256;74172;-70
2023/06/28 09:25:55;;;;;;;5.70;2.00;;;;;;;21.10;49.84;101057.11;106874;1257;70115;-72
2023/06/28 09:28:28;;;;;;;7.70;5.00;;;;;;;21.15;50.48;101058.98;107366;1256;72759;-69
2023/06/28 09:30:55;;;;;;;3.60;1.10;;;;;;;21.19;49.76;101060.04;106716;1256;61271;-71
2023/06/28 09:33:25;;;;;;;4.20;1.10;;;;;;;21.30;50.65;101053.48;106509;1256;61377;-69
2023/06/28 09:35:55;;;;;;;4.30;0.90;;;;;;;21.41;50.73;101059.70;107063;1257;72590;-70
2023/06/28 09:38:23;;;;;;;3.90;1.30;;;;;;;21.46;50.03;101066.38;107271;1261;71281;-68
2023/06/28 09:41:01;;;;;;;4.60;1.00;;;;;;;21.53;49.98;101058.94;106653;1257;72779;-67
2023/06/28 09:43:35;;;;;;;6.10;2.60;;;;;;;21.55;48.89;101062.60;106801;1261;61308;-72
2023/06/28 09:46:12;;;;;;;4.40;1.10;;;;;;;21.64;49.94;101068.40;106475;1256;60463;-71
2023/06/28 09:48:43;;;;;;;4.80;1.00;;;;;;;21.77;49.78;101057.52;107213;1256;73486;-69
2023/06/28 09:51:11;;;;;;;7.00;2.20;;;;;;;21.86;49.04;101057.11;106977;1256;70027;-71
2023/06/28 09:53:56;;;;;;;7.70;3.60;;;;;;;21.94;49.02;101060.73;107422;1257;71466;-72
2023/06/28 09:56:35;;;;;;;5.00;1.20;;;;;;;21.90;48.23;101059.66;106722;1256;61384;-70
2023/06/28 09:59:06;;;;;;;11.20;6.30;;;;;;;21.88;48.35;101057.90;106837;1256;61199;-71
2023/06/28 10:01:39;;;;;;;2.90;1.10;;;;;;;21.99;48.54;101058.21;106864;1257;74651;-71
2023/06/28 10:04:08;;;;;;;2.90;0.80;;;;;;;22.08;47.35;101059.13;106721;1258;69749;-71
2023/06/28 10:06:36;;;;;;;6.30;2.60;;;;;;;22.14;47.88;101054.54;107118;1256;71705;-72
2023/06/28 10:09:03;;;;;;;9.10;4.50;;;;;;;22.09;48.41;101065.89;106968;1256;61145;-70
2023/06/28 10:11:34;;;;;;;5.10;1.50;;;;;;;22.06;48.14;101070.61;107360;1259;61312;-73
2023/06/28 10:14:06;;;;;;;3.60;0.80;;;;;;;22.14;47.65;101065.84;106845;1257;74649;-72
2023/06/28 10:16:33;;;;;;;4.50;1.10;;;;;;;22.27;46.42;101059.55;106747;1256;71150;-70
2023/06/28 10:19:00;;;;;;;3.30;1.10;;;;;;;22.44;46.21;101060.36;106829;1256;71681;-72
2023/06/28 10:21:28;;;;;;;4.40;1.20;;;;;;;22.60;45.74;101053.66;106735;1261;61356;-71
2023/06/28 10:23:55;;;;;;;4.10;2.10;;;;;;;22.84;45.76;101057.06;106487;1257;61359;-72
2023/06/28 10:26:22;;;;;;;5.50;2.40;;;;;;;23.00;45.69;101052.05;106916;1256;73255;-74
2023/06/28 10:28:52;;;;;;;3.40;0.90;;;;;;;23.19;45.30;101057.31;106743;1260;68895;-72
2023/06/28 10:31:19;;;;;;;14.20;8.10;;;;;;;23.16;45.08;101058.46;107555;1256;71557;-72
2023/06/28 10:33:47;;;;;;;10.30;6.00;;;;;;;23.05;46.43;101065.83;107061;1257;61236;-71
2023/06/28 10:36:15;;;;;;;5.90;1.30;;;;;;;23.09;46.31;101062.85;106955;1261;61378;-71
2023/06/28 10:38:44;;;;;;;5.70;1.40;;;;;;;23.21;46.10;101057.82;107115;1257;75819;-71
2023/06/28 10:41:19;;;;;;;8.70;1.40;;;;;;;23.41;46.84;101049.19;107123;1257;71207;-69
2023/06/28 10:43:46;;;;;;;4.70;1.00;;;;;;;23.43;45.72;101057.08;107131;1256;70961;-70
2023/06/28 10:46:24;;;;;;;4.00;1.10;;;;;;;23.32;45.90;101056.02;106576;1257;61693;-71
2023/06/28 10:48:53;;;;;;;4.70;1.60;;;;;;;23.26;46.04;101052.48;106972;1256;61177;-70
2023/06/28 10:51:22;;;;;;;7.30;1.30;;;;;;;23.39;46.87;101055.17;108020;1256;73468;-71
2023/06/28 10:53:53;;;;;;;4.80;1.40;;;;;;;23.56;46.58;101048.14;107165;1260;70887;-72
2023/06/28 10:56:20;;;;;;;8.20;1.20;;;;;;;23.75;46.55;101048.26;106781;1256;72691;-70
2023/06/28 10:58:54;;;;;;;4.80;1.10;;;;;;;23.70;45.05;101052.40;106866;1257;61766;-71
2023/06/28 11:01:59;;;;;;;6.10;1.50;;;;;;;23.72;44.55;101054.54;107654;1257;61154;-73
2023/06/28 11:04:26;;;;;;;8.40;1.50;;;;;;;23.85;44.67;101044.85;106680;1256;74778;-72
2023/06/28 11:07:08;;;;;;;5.60;1.40;;;;;;;24.00;43.64;101047.66;107117;1256;70262;-71
2023/06/28 11:09:35;;;;;;;4.10;1.10;;;;;;;24.08;43.45;101048.92;107108;1257;72549;-72
2023/06/28 11:12:03;;;;;;;4.90;1.30;;;;;;;24.02;44.91;101053.05;107168;1256;61256;-74
2023/06/28 11:14:31;;;;;;;5.50;1.40;;;;;;;24.00;44.65;101056.00;106637;1260;61128;-74
2023/06/28 11:17:14;;;;;;;2.90;1.10;;;;;;;23.96;44.43;101055.15;107282;1257;73496;-73
2023/06/28 11:19:44;;;;;;;6.30;3.70;;;;;;;23.90;43.87;101052.91;108481;1256;69936;-75
2023/06/28 11:22:11;;;;;;;5.40;1.70;;;;;;;23.89;42.99;101047.44;106600;1260;73974;-73